createdAt,value
2023-03-22T00:02:16.406Z,4.60
2023-03-22T00:04:44.383Z,4.17
2023-03-22T00:07:12.209Z,4.30
2023-03-22T00:09:40.157Z,4.20
2023-03-22T00:12:09.488Z,4.40
2023-03-22T00:14:37.514Z,4.47
2023-03-22T00:17:05.447Z,4.30
2023-03-22T00:19:33.858Z,4.73
2023-03-22T00:22:02.027Z,4.63
2023-03-22T00:24:29.896Z,4.20
2023-03-22T00:26:58.648Z,4.40
2023-03-22T00:29:27.846Z,4.20
2023-03-22T00:31:56.066Z,4.90
2023-03-22T00:34:23.980Z,4.20
2023-03-22T00:36:52.066Z,4.10
2023-03-22T00:39:20.899Z,4.40
2023-03-22T00:41:48.816Z,4.60
2023-03-22T00:44:16.687Z,4.20
2023-03-22T00:46:47.290Z,3.93
2023-03-22T00:49:15.347Z,4.77
2023-03-22T00:51:43.135Z,4.60
2023-03-22T00:54:11.884Z,4.37
2023-03-22T00:56:39.813Z,4.13
2023-03-22T00:59:14.110Z,4.73
2023-03-22T01:01:44.342Z,4.80
2023-03-22T01:04:18.093Z,4.37
2023-03-22T01:06:47.068Z,4.67
2023-03-22T01:09:15.120Z,4.20
2023-03-22T01:11:43.798Z,4.33
2023-03-22T01:14:13.756Z,4.23
2023-03-22T01:16:41.693Z,4.40
2023-03-22T01:19:09.841Z,3.90
2023-03-22T01:21:39.150Z,4.77
2023-03-22T01:24:07.592Z,4.60
2023-03-22T01:26:35.787Z,4.30
2023-03-22T01:29:03.570Z,4.20
2023-03-22T01:31:31.420Z,4.57
2023-03-22T01:33:59.383Z,4.03
2023-03-22T01:36:27.609Z,4.57
2023-03-22T01:38:57.569Z,3.97
2023-03-22T01:41:25.436Z,3.80
2023-03-22T01:44:13.285Z,3.40
2023-03-22T01:46:41.380Z,3.90
2023-03-22T01:49:12.160Z,4.50
2023-03-22T01:51:43.800Z,3.50
2023-03-22T01:54:28.046Z,3.60
2023-03-22T01:56:56.373Z,4.07
2023-03-22T01:59:33.748Z,3.97
2023-03-22T02:02:30.852Z,3.73
2023-03-22T02:05:09.149Z,4.20
2023-03-22T02:07:38.320Z,4.20
2023-03-22T02:10:16.760Z,4.10
2023-03-22T02:13:07.148Z,3.53
2023-03-22T02:15:52.851Z,3.73
2023-03-22T02:19:05.539Z,3.90
2023-03-22T02:22:09.765Z,3.70
2023-03-22T02:25:17.557Z,3.90
2023-03-22T02:28:09.477Z,3.77
2023-03-22T02:31:01.282Z,3.80
2023-03-22T02:34:06.986Z,3.70
2023-03-22T02:36:59.894Z,3.70
2023-03-22T02:39:39.922Z,3.50
2023-03-22T02:42:27.530Z,3.47
2023-03-22T02:45:02.972Z,3.60
2023-03-22T02:47:40.645Z,3.60
2023-03-22T02:50:15.825Z,3.50
2023-03-22T02:52:51.249Z,3.80
2023-03-22T02:55:25.088Z,3.60
2023-03-22T02:57:58.996Z,3.60
2023-03-22T03:00:27.987Z,3.40
2023-03-22T03:03:01.134Z,3.80
2023-03-22T03:05:32.007Z,3.60
2023-03-22T03:08:03.839Z,3.53
2023-03-22T03:10:35.524Z,3.87
2023-03-22T03:13:03.435Z,3.50
2023-03-22T03:15:31.739Z,3.20
2023-03-22T03:18:19.743Z,3.80
2023-03-22T03:21:00.282Z,3.43
2023-03-22T03:23:35.873Z,3.63
2023-03-22T03:26:13.124Z,3.40
2023-03-22T03:28:49.931Z,3.50
2023-03-22T03:31:30.940Z,3.47
2023-03-22T03:34:05.046Z,3.40
2023-03-22T03:36:37.754Z,3.70
2023-03-22T03:39:11.025Z,4.00
2023-03-22T03:41:41.833Z,3.77
2023-03-22T03:44:10.867Z,3.60
2023-03-22T03:46:39.254Z,3.57
2023-03-22T03:49:09.954Z,3.70
2023-03-22T03:51:48.453Z,3.70
2023-03-22T03:54:16.451Z,3.20
2023-03-22T03:56:47.709Z,3.03
2023-03-22T03:59:16.914Z,3.40
2023-03-22T04:01:52.330Z,3.60
2023-03-22T04:04:29.539Z,3.33
2023-03-22T04:07:02.215Z,3.70
2023-03-22T04:09:35.258Z,3.70
2023-03-22T04:12:12.978Z,3.47
2023-03-22T04:14:41.723Z,3.30
2023-03-22T04:17:19.243Z,3.63
2023-03-22T04:19:47.126Z,3.40
2023-03-22T04:22:18.368Z,3.40
2023-03-22T04:24:50.207Z,3.30
2023-03-22T04:27:22.821Z,3.30
2023-03-22T04:30:11.620Z,3.20
2023-03-22T04:33:06.833Z,3.43
2023-03-22T04:36:16.051Z,3.30
2023-03-22T04:38:59.854Z,3.20
2023-03-22T04:41:29.434Z,3.50
2023-03-22T04:44:03.434Z,3.10
2023-03-22T04:46:34.800Z,3.23
2023-03-22T04:49:06.119Z,3.23
2023-03-22T04:51:37.640Z,3.17
2023-03-22T04:54:21.086Z,3.40
2023-03-22T04:56:50.047Z,3.00
2023-03-22T04:59:21.464Z,3.20
2023-03-22T05:01:51.410Z,3.30
2023-03-22T05:04:23.004Z,3.30
2023-03-22T05:06:56.249Z,3.30
2023-03-22T05:09:31.507Z,3.00
2023-03-22T05:11:59.308Z,3.27
2023-03-22T05:14:46.392Z,3.30
2023-03-22T05:17:17.606Z,3.37
2023-03-22T05:19:45.848Z,3.43
2023-03-22T05:22:13.964Z,3.33
2023-03-22T05:24:46.220Z,3.27
2023-03-22T05:27:31.685Z,2.90
2023-03-22T05:30:26.777Z,3.23
2023-03-22T05:33:04.095Z,3.10
2023-03-22T05:35:38.583Z,3.00
2023-03-22T05:38:08.077Z,3.17
2023-03-22T05:40:38.337Z,3.47
2023-03-22T05:43:06.587Z,3.20
2023-03-22T05:45:37.756Z,3.27
2023-03-22T05:48:13.612Z,3.37
2023-03-22T05:50:42.178Z,3.10
2023-03-22T05:53:11.593Z,3.17
2023-03-22T05:55:53.057Z,2.97
2023-03-22T05:58:21.181Z,3.10
2023-03-22T06:00:53.052Z,2.80
2023-03-22T06:03:41.134Z,2.50
2023-03-22T06:06:29.227Z,3.20
2023-03-22T06:09:23.166Z,3.50
2023-03-22T06:11:53.367Z,2.90
2023-03-22T06:14:21.309Z,2.77
2023-03-22T06:17:25.695Z,2.80
2023-03-22T06:19:55.376Z,2.80
2023-03-22T06:22:23.520Z,2.80
2023-03-22T06:24:51.677Z,2.80
2023-03-22T06:27:29.896Z,2.30
2023-03-22T06:29:57.732Z,2.67
2023-03-22T06:32:28.567Z,2.40
2023-03-22T06:34:57.711Z,2.50
2023-03-22T06:37:26.519Z,2.67
2023-03-22T06:39:55.379Z,1.83
2023-03-22T06:42:26.053Z,2.17
2023-03-22T06:45:04.331Z,2.10
2023-03-22T06:47:36.727Z,2.00
2023-03-22T06:50:04.908Z,1.80
2023-03-22T06:52:58.570Z,1.87
2023-03-22T06:55:26.372Z,2.00
2023-03-22T06:57:54.415Z,1.77
2023-03-22T07:00:47.295Z,2.23
2023-03-22T07:03:17.704Z,2.40
2023-03-22T07:06:02.652Z,2.23
2023-03-22T07:08:33.217Z,1.87
2023-03-22T07:11:01.093Z,2.33
2023-03-22T07:13:29.789Z,2.00
2023-03-22T07:16:03.785Z,1.90
2023-03-22T07:18:46.442Z,2.30
2023-03-22T07:21:14.430Z,1.90
2023-03-22T07:23:44.136Z,2.03
2023-03-22T07:26:15.771Z,2.17
2023-03-22T07:28:47.061Z,2.07
2023-03-22T07:31:17.933Z,2.17
2023-03-22T07:33:59.147Z,2.10
2023-03-22T07:36:29.972Z,2.10
2023-03-22T07:38:58.152Z,2.03
2023-03-22T07:41:30.670Z,2.10
2023-03-22T07:44:25.169Z,2.20
2023-03-22T07:47:11.581Z,2.80
2023-03-22T07:50:04.040Z,2.37
2023-03-22T07:52:33.604Z,2.80
2023-03-22T07:55:01.690Z,2.53
2023-03-22T07:57:29.495Z,2.57
2023-03-22T08:00:00.754Z,2.87
2023-03-22T08:02:54.080Z,2.77
2023-03-22T08:05:42.813Z,2.77
2023-03-22T08:08:13.647Z,3.33
2023-03-22T08:10:41.916Z,2.97
2023-03-22T08:13:09.788Z,3.20
2023-03-22T08:15:38.595Z,3.50
2023-03-22T08:18:08.664Z,3.60
2023-03-22T08:20:40.541Z,3.40
2023-03-22T08:23:16.125Z,4.30
2023-03-22T08:25:58.225Z,4.27
2023-03-22T08:28:26.191Z,4.17
2023-03-22T08:30:54.777Z,4.03
2023-03-22T08:33:23.802Z,4.07
2023-03-22T08:35:52.584Z,4.17
2023-03-22T08:38:22.273Z,4.13
2023-03-22T08:40:54.169Z,4.23
2023-03-22T08:43:25.166Z,3.87
2023-03-22T08:45:53.755Z,4.00
2023-03-22T08:48:22.087Z,4.20
2023-03-22T08:51:08.944Z,3.83
2023-03-22T08:53:52.990Z,3.80
2023-03-22T08:56:41.778Z,3.97
2023-03-22T08:59:19.903Z,4.03
2023-03-22T09:02:06.459Z,3.70
2023-03-22T09:04:34.430Z,3.53
2023-03-22T09:07:03.791Z,3.40
2023-03-22T09:09:33.137Z,3.67
2023-03-22T09:12:01.065Z,3.40
2023-03-22T09:14:29.478Z,3.50
2023-03-22T09:16:58.795Z,3.00
2023-03-22T09:19:27.472Z,3.30
2023-03-22T09:21:55.610Z,2.93
2023-03-22T09:24:42.158Z,3.27
2023-03-22T09:27:10.285Z,2.80
2023-03-22T09:29:38.514Z,2.90
2023-03-22T09:32:10.902Z,3.73
2023-03-22T09:34:40.694Z,3.17
2023-03-22T09:37:08.901Z,3.47
2023-03-22T09:39:50.168Z,3.73
2023-03-22T09:42:34.788Z,3.30
2023-03-22T09:45:07.724Z,3.77
2023-03-22T09:47:44.820Z,3.80
2023-03-22T09:50:16.318Z,3.50
2023-03-22T09:52:45.052Z,3.30
2023-03-22T09:55:20.563Z,3.50
2023-03-22T09:57:54.958Z,3.40
2023-03-22T10:00:49.545Z,3.03
2023-03-22T10:03:30.509Z,2.60
2023-03-22T10:06:03.733Z,3.40
2023-03-22T10:08:43.209Z,2.87
2023-03-22T10:11:22.502Z,3.13
2023-03-22T10:13:59.970Z,2.87
2023-03-22T10:16:32.819Z,2.67
2023-03-22T10:19:08.762Z,2.80
2023-03-22T10:21:37.240Z,2.63
2023-03-22T10:24:14.590Z,2.67
2023-03-22T10:26:47.650Z,2.60
2023-03-22T10:29:23.245Z,2.30
2023-03-22T10:31:51.191Z,2.23
2023-03-22T10:34:22.699Z,2.60
2023-03-22T10:36:52.951Z,2.47
2023-03-22T10:39:31.652Z,2.23
2023-03-22T10:42:03.988Z,2.60
2023-03-22T10:44:37.013Z,2.20
2023-03-22T10:47:08.310Z,1.83
2023-03-22T10:49:40.430Z,1.90
2023-03-22T10:52:23.998Z,1.83
2023-03-22T10:54:52.045Z,2.10
2023-03-22T10:57:21.209Z,2.40
2023-03-22T10:59:51.203Z,2.20
2023-03-22T11:02:23.930Z,2.37
2023-03-22T11:04:53.803Z,2.40
2023-03-22T11:07:34.728Z,2.40
2023-03-22T11:10:27.404Z,2.30
2023-03-22T11:13:11.789Z,2.60
2023-03-22T11:15:42.110Z,2.30
2023-03-22T11:18:15.737Z,2.53
2023-03-22T11:20:53.236Z,2.37
2023-03-22T11:23:22.354Z,2.37
2023-03-22T11:25:51.995Z,2.23
2023-03-22T11:28:23.990Z,2.10
2023-03-22T11:31:00.992Z,2.20
2023-03-22T11:33:29.184Z,2.27
2023-03-22T11:35:58.807Z,2.17
2023-03-22T11:38:30.561Z,2.73
2023-03-22T11:41:02.648Z,2.40
2023-03-22T11:43:37.482Z,2.40
2023-03-22T11:46:06.543Z,2.50
2023-03-22T11:48:36.270Z,2.10
2023-03-22T11:51:11.121Z,2.87
2023-03-22T11:53:41.950Z,2.33
2023-03-22T11:56:12.621Z,2.53
2023-03-22T11:59:07.634Z,2.30
2023-03-22T12:01:41.814Z,2.43
2023-03-22T12:04:21.036Z,2.60
2023-03-22T12:06:50.405Z,2.70
2023-03-22T12:09:26.981Z,2.37
2023-03-22T12:11:57.778Z,2.10
2023-03-22T12:14:31.037Z,2.27
2023-03-22T12:17:02.482Z,2.23
2023-03-22T12:19:49.656Z,2.20
2023-03-22T12:22:21.937Z,2.40
2023-03-22T12:24:49.723Z,2.60
2023-03-22T12:27:21.800Z,2.00
2023-03-22T12:29:55.711Z,2.50
2023-03-22T12:32:27.894Z,2.40
2023-03-22T12:35:09.092Z,2.30
2023-03-22T12:37:44.311Z,1.97
2023-03-22T12:40:21.770Z,2.00
2023-03-22T12:43:00.122Z,1.70
2023-03-22T12:45:32.767Z,2.00
2023-03-22T12:48:07.275Z,1.60
2023-03-22T12:50:39.729Z,1.97
2023-03-22T12:53:12.463Z,1.83
2023-03-22T12:55:42.054Z,1.97
2023-03-22T12:58:11.613Z,2.23
2023-03-22T13:00:46.792Z,2.10
2023-03-22T13:03:26.785Z,1.87
2023-03-22T13:06:02.789Z,2.13
2023-03-22T13:09:13.163Z,2.13
2023-03-22T13:11:41.185Z,2.20
2023-03-22T13:14:12.530Z,2.00
2023-03-22T13:16:50.996Z,1.87
2023-03-22T13:19:28.821Z,1.77
2023-03-22T13:22:16.508Z,2.17
2023-03-22T13:25:14.411Z,1.80
2023-03-22T13:27:51.252Z,1.50
2023-03-22T13:30:25.826Z,1.80
2023-03-22T13:32:58.069Z,1.80
2023-03-22T13:35:29.019Z,2.10
2023-03-22T13:38:03.783Z,2.00
2023-03-22T13:40:37.767Z,1.43
2023-03-22T13:43:24.664Z,1.87
2023-03-22T13:46:07.276Z,1.70
2023-03-22T13:48:45.852Z,1.87
2023-03-22T13:51:18.477Z,1.67
2023-03-22T13:53:57.628Z,1.87
2023-03-22T13:56:33.677Z,1.70
2023-03-22T13:59:04.866Z,1.63
2023-03-22T14:01:36.219Z,1.63
2023-03-22T14:04:12.240Z,1.67
2023-03-22T14:06:49.983Z,1.33
2023-03-22T14:09:27.057Z,1.50
2023-03-22T14:12:00.854Z,1.03
2023-03-22T14:14:33.502Z,1.20
2023-03-22T14:17:04.997Z,1.60
2023-03-22T14:19:37.650Z,1.37
